sensor_id;sensor_type;location;lat;lon;timestamp;P1;durP1;ratioP1;P2;durP2;ratioP2
70908;SDS011;58554;52.006;5.926;2023-06-04T00:02:01;4.95;;;2.50;;
70908;SDS011;58554;52.006;5.926;2023-06-04T00:04:30;3.73;;;1.93;;
70908;SDS011;58554;52.006;5.926;2023-06-04T00:06:57;3.60;;;2.07;;
70908;SDS011;58554;52.006;5.926;2023-06-04T00:09:23;4.97;;;2.13;;
70908;SDS011;58554;52.006;5.926;2023-06-04T00:11:50;3.63;;;1.80;;
70908;SDS011;58554;52.006;5.926;2023-06-04T00:14:16;5.00;;;2.08;;
70908;SDS011;58554;52.006;5.926;2023-06-04T00:16:43;3.57;;;2.00;;
70908;SDS011;58554;52.006;5.926;2023-06-04T00:19:09;3.95;;;1.90;;
70908;SDS011;58554;52.006;5.926;2023-06-04T00:21:39;4.80;;;2.00;;
70908;SDS011;58554;52.006;5.926;2023-06-04T00:24:05;4.33;;;2.17;;
70908;SDS011;58554;52.006;5.926;2023-06-04T00:26:32;3.20;;;2.15;;
70908;SDS011;58554;52.006;5.926;2023-06-04T00:29:00;3.30;;;1.90;;
70908;SDS011;58554;52.006;5.926;2023-06-04T00:31:27;3.93;;;1.93;;
70908;SDS011;58554;52.006;5.926;2023-06-04T00:33:53;3.50;;;2.20;;
70908;SDS011;58554;52.006;5.926;2023-06-04T00:36:20;4.23;;;2.13;;
70908;SDS011;58554;52.006;5.926;2023-06-04T00:38:49;3.45;;;2.03;;
70908;SDS011;58554;52.006;5.926;2023-06-04T00:41:15;4.80;;;1.93;;
70908;SDS011;58554;52.006;5.926;2023-06-04T00:43:42;3.20;;;2.10;;
70908;SDS011;58554;52.006;5.926;2023-06-04T00:46:08;2.97;;;1.90;;
70908;SDS011;58554;52.006;5.926;2023-06-04T00:48:35;4.25;;;2.28;;
70908;SDS011;58554;52.006;5.926;2023-06-04T00:51:02;4.43;;;2.07;;
70908;SDS011;58554;52.006;5.926;2023-06-04T00:53:29;3.85;;;1.98;;
70908;SDS011;58554;52.006;5.926;2023-06-04T00:55:59;3.83;;;2.05;;
70908;SDS011;58554;52.006;5.926;2023-06-04T00:58:25;4.10;;;1.93;;
70908;SDS011;58554;52.006;5.926;2023-06-04T01:00:52;4.38;;;2.63;;
70908;SDS011;58554;52.006;5.926;2023-06-04T01:03:25;2.80;;;1.98;;
70908;SDS011;58554;52.006;5.926;2023-06-04T01:06:00;4.27;;;1.80;;
70908;SDS011;58554;52.006;5.926;2023-06-04T01:08:38;3.05;;;1.90;;
70908;SDS011;58554;52.006;5.926;2023-06-04T01:11:10;3.13;;;1.70;;
70908;SDS011;58554;52.006;5.926;2023-06-04T01:13:36;4.10;;;2.05;;
70908;SDS011;58554;52.006;5.926;2023-06-04T01:16:03;3.80;;;2.30;;
70908;SDS011;58554;52.006;5.926;2023-06-04T01:18:31;5.23;;;2.03;;
70908;SDS011;58554;52.006;5.926;2023-06-04T01:21:04;2.87;;;1.90;;
70908;SDS011;58554;52.006;5.926;2023-06-04T01:23:37;3.23;;;2.10;;
70908;SDS011;58554;52.006;5.926;2023-06-04T01:26:15;3.63;;;1.80;;
70908;SDS011;58554;52.006;5.926;2023-06-04T01:28:42;3.65;;;1.88;;
70908;SDS011;58554;52.006;5.926;2023-06-04T01:31:11;3.00;;;1.83;;
70908;SDS011;58554;52.006;5.926;2023-06-04T01:33:39;4.17;;;2.10;;
70908;SDS011;58554;52.006;5.926;2023-06-04T01:36:06;2.90;;;1.93;;
70908;SDS011;58554;52.006;5.926;2023-06-04T01:38:32;3.08;;;1.90;;
70908;SDS011;58554;52.006;5.926;2023-06-04T01:40:59;4.90;;;1.97;;
70908;SDS011;58554;52.006;5.926;2023-06-04T01:43:28;3.63;;;1.90;;
70908;SDS011;58554;52.006;5.926;2023-06-04T01:45:55;3.10;;;1.80;;
70908;SDS011;58554;52.006;5.926;2023-06-04T01:48:21;4.37;;;1.90;;
70908;SDS011;58554;52.006;5.926;2023-06-04T01:50:48;5.47;;;1.97;;
70908;SDS011;58554;52.006;5.926;2023-06-04T01:53:14;3.60;;;2.13;;
70908;SDS011;58554;52.006;5.926;2023-06-04T01:55:41;6.33;;;2.10;;
70908;SDS011;58554;52.006;5.926;2023-06-04T01:58:07;4.47;;;2.10;;
70908;SDS011;58554;52.006;5.926;2023-06-04T02:00:36;3.30;;;1.70;;
70908;SDS011;58554;52.006;5.926;2023-06-04T02:03:03;3.17;;;1.90;;
70908;SDS011;58554;52.006;5.926;2023-06-04T02:05:29;4.28;;;2.10;;
70908;SDS011;58554;52.006;5.926;2023-06-04T02:07:56;3.30;;;2.10;;
70908;SDS011;58554;52.006;5.926;2023-06-04T02:10:23;3.80;;;2.10;;
70908;SDS011;58554;52.006;5.926;2023-06-04T02:12:53;4.95;;;2.17;;
70908;SDS011;58554;52.006;5.926;2023-06-04T02:15:22;3.15;;;1.80;;
70908;SDS011;58554;52.006;5.926;2023-06-04T02:17:55;4.60;;;2.47;;
70908;SDS011;58554;52.006;5.926;2023-06-04T02:20:23;4.77;;;2.20;;
70908;SDS011;58554;52.006;5.926;2023-06-04T02:22:50;3.80;;;2.20;;
70908;SDS011;58554;52.006;5.926;2023-06-04T02:25:16;3.63;;;2.23;;
70908;SDS011;58554;52.006;5.926;2023-06-04T02:27:43;3.23;;;2.00;;
70908;SDS011;58554;52.006;5.926;2023-06-04T02:30:09;3.67;;;1.90;;
70908;SDS011;58554;52.006;5.926;2023-06-04T02:32:36;4.25;;;2.42;;
70908;SDS011;58554;52.006;5.926;2023-06-04T02:35:06;4.60;;;1.90;;
70908;SDS011;58554;52.006;5.926;2023-06-04T02:37:33;3.78;;;2.20;;
70908;SDS011;58554;52.006;5.926;2023-06-04T02:39:59;3.10;;;1.73;;
70908;SDS011;58554;52.006;5.926;2023-06-04T02:42:26;4.15;;;2.38;;
70908;SDS011;58554;52.006;5.926;2023-06-04T02:44:52;3.40;;;1.90;;
70908;SDS011;58554;52.006;5.926;2023-06-04T02:47:19;3.77;;;2.40;;
70908;SDS011;58554;52.006;5.926;2023-06-04T02:49:45;4.30;;;2.00;;
70908;SDS011;58554;52.006;5.926;2023-06-04T02:52:14;4.22;;;2.15;;
70908;SDS011;58554;52.006;5.926;2023-06-04T02:54:41;3.93;;;2.30;;
70908;SDS011;58554;52.006;5.926;2023-06-04T02:57:07;3.08;;;1.90;;
70908;SDS011;58554;52.006;5.926;2023-06-04T02:59:34;3.57;;;1.90;;
70908;SDS011;58554;52.006;5.926;2023-06-04T03:02:01;3.60;;;2.40;;
70908;SDS011;58554;52.006;5.926;2023-06-04T03:04:27;5.43;;;2.53;;
70908;SDS011;58554;52.006;5.926;2023-06-04T03:06:54;3.53;;;2.00;;
70908;SDS011;58554;52.006;5.926;2023-06-04T03:09:23;3.73;;;2.30;;
70908;SDS011;58554;52.006;5.926;2023-06-04T03:11:49;4.43;;;2.50;;
70908;SDS011;58554;52.006;5.926;2023-06-04T03:14:16;4.40;;;2.10;;
70908;SDS011;58554;52.006;5.926;2023-06-04T03:16:42;6.25;;;2.10;;
70908;SDS011;58554;52.006;5.926;2023-06-04T03:19:09;4.80;;;2.13;;
70908;SDS011;58554;52.006;5.926;2023-06-04T03:21:35;3.53;;;2.33;;
70908;SDS011;58554;52.006;5.926;2023-06-04T03:24:02;6.60;;;2.23;;
70908;SDS011;58554;52.006;5.926;2023-06-04T03:26:31;5.95;;;2.70;;
70908;SDS011;58554;52.006;5.926;2023-06-04T03:28:57;4.90;;;2.53;;
70908;SDS011;58554;52.006;5.926;2023-06-04T03:31:24;4.30;;;2.30;;
70908;SDS011;58554;52.006;5.926;2023-06-04T03:33:50;4.57;;;2.15;;
70908;SDS011;58554;52.006;5.926;2023-06-04T03:36:17;6.50;;;2.40;;
70908;SDS011;58554;52.006;5.926;2023-06-04T03:38:44;4.13;;;2.10;;
70908;SDS011;58554;52.006;5.926;2023-06-04T03:41:11;5.30;;;2.30;;
70908;SDS011;58554;52.006;5.926;2023-06-04T03:43:40;4.90;;;2.50;;
70908;SDS011;58554;52.006;5.926;2023-06-04T03:46:07;4.95;;;2.20;;
70908;SDS011;58554;52.006;5.926;2023-06-04T03:48:33;5.90;;;2.67;;
70908;SDS011;58554;52.006;5.926;2023-06-04T03:51:00;3.37;;;2.00;;
70908;SDS011;58554;52.006;5.926;2023-06-04T03:53:26;4.25;;;2.20;;
70908;SDS011;58554;52.006;5.926;2023-06-04T03:55:53;4.87;;;2.40;;
70908;SDS011;58554;52.006;5.926;2023-06-04T03:58:19;4.20;;;2.23;;
70908;SDS011;58554;52.006;5.926;2023-06-04T04:00:48;4.07;;;2.03;;
70908;SDS011;58554;52.006;5.926;2023-06-04T04:03:15;3.75;;;2.50;;
70908;SDS011;58554;52.006;5.926;2023-06-04T04:05:41;3.77;;;2.23;;
70908;SDS011;58554;52.006;5.926;2023-06-04T04:08:08;4.80;;;2.40;;
70908;SDS011;58554;52.006;5.926;2023-06-04T04:10:34;4.87;;;2.33;;
70908;SDS011;58554;52.006;5.926;2023-06-04T04:13:01;4.17;;;2.40;;
70908;SDS011;58554;52.006;5.926;2023-06-04T04:15:27;5.05;;;2.50;;
70908;SDS011;58554;52.006;5.926;2023-06-04T04:17:57;5.60;;;2.60;;
70908;SDS011;58554;52.006;5.926;2023-06-04T04:20:24;7.68;;;2.80;;
70908;SDS011;58554;52.006;5.926;2023-06-04T04:22:50;4.40;;;2.40;;
70908;SDS011;58554;52.006;5.926;2023-06-04T04:25:17;5.03;;;2.42;;
70908;SDS011;58554;52.006;5.926;2023-06-04T04:27:43;4.97;;;2.70;;
70908;SDS011;58554;52.006;5.926;2023-06-04T04:30:10;6.23;;;2.63;;
70908;SDS011;58554;52.006;5.926;2023-06-04T04:32:38;5.60;;;2.43;;
70908;SDS011;58554;52.006;5.926;2023-06-04T04:35:07;4.88;;;2.80;;
70908;SDS011;58554;52.006;5.926;2023-06-04T04:37:34;5.87;;;2.73;;
70908;SDS011;58554;52.006;5.926;2023-06-04T04:40:01;4.33;;;2.60;;
70908;SDS011;58554;52.006;5.926;2023-06-04T04:42:27;5.93;;;2.93;;
70908;SDS011;58554;52.006;5.926;2023-06-04T04:44:54;6.37;;;2.50;;
70908;SDS011;58554;52.006;5.926;2023-06-04T04:47:20;4.28;;;2.58;;
70908;SDS011;58554;52.006;5.926;2023-06-04T04:49:47;5.03;;;2.87;;
70908;SDS011;58554;52.006;5.926;2023-06-04T04:52:16;4.75;;;2.78;;
70908;SDS011;58554;52.006;5.926;2023-06-04T04:54:42;5.03;;;2.87;;
70908;SDS011;58554;52.006;5.926;2023-06-04T04:57:09;6.63;;;2.80;;
70908;SDS011;58554;52.006;5.926;2023-06-04T04:59:35;5.18;;;3.00;;
70908;SDS011;58554;52.006;5.926;2023-06-04T05:02:02;7.05;;;3.05;;
70908;SDS011;58554;52.006;5.926;2023-06-04T05:04:28;4.90;;;2.87;;
70908;SDS011;58554;52.006;5.926;2023-06-04T05:06:55;5.93;;;2.80;;
70908;SDS011;58554;52.006;5.926;2023-06-04T05:09:24;6.87;;;2.80;;
70908;SDS011;58554;52.006;5.926;2023-06-04T05:11:50;4.80;;;2.70;;
70908;SDS011;58554;52.006;5.926;2023-06-04T05:14:17;5.00;;;2.80;;
70908;SDS011;58554;52.006;5.926;2023-06-04T05:16:43;5.30;;;3.07;;
70908;SDS011;58554;52.006;5.926;2023-06-04T05:19:10;4.13;;;2.50;;
70908;SDS011;58554;52.006;5.926;2023-06-04T05:21:36;5.97;;;2.80;;
70908;SDS011;58554;52.006;5.926;2023-06-04T05:24:02;5.60;;;3.00;;
70908;SDS011;58554;52.006;5.926;2023-06-04T05:26:32;5.28;;;2.75;;
70908;SDS011;58554;52.006;5.926;2023-06-04T05:28:59;5.20;;;2.90;;
70908;SDS011;58554;52.006;5.926;2023-06-04T05:31:26;6.87;;;3.20;;
70908;SDS011;58554;52.006;5.926;2023-06-04T05:33:53;5.93;;;3.38;;
70908;SDS011;58554;52.006;5.926;2023-06-04T05:36:19;4.83;;;2.53;;
70908;SDS011;58554;52.006;5.926;2023-06-04T05:38:46;4.45;;;2.63;;
70908;SDS011;58554;52.006;5.926;2023-06-04T05:41:12;6.38;;;2.60;;
70908;SDS011;58554;52.006;5.926;2023-06-04T05:43:41;5.40;;;3.13;;
70908;SDS011;58554;52.006;5.926;2023-06-04T05:46:08;4.93;;;2.65;;
70908;SDS011;58554;52.006;5.926;2023-06-04T05:48:34;4.57;;;2.47;;
70908;SDS011;58554;52.006;5.926;2023-06-04T05:51:01;5.03;;;2.73;;
70908;SDS011;58554;52.006;5.926;2023-06-04T05:53:27;5.43;;;2.83;;
70908;SDS011;58554;52.006;5.926;2023-06-04T05:55:54;6.60;;;3.00;;
70908;SDS011;58554;52.006;5.926;2023-06-04T05:58:20;4.90;;;2.90;;
70908;SDS011;58554;52.006;5.926;2023-06-04T06:00:50;5.00;;;2.70;;
70908;SDS011;58554;52.006;5.926;2023-06-04T06:03:17;4.43;;;2.70;;
70908;SDS011;58554;52.006;5.926;2023-06-04T06:05:43;6.30;;;3.10;;
70908;SDS011;58554;52.006;5.926;2023-06-04T06:08:10;4.93;;;2.97;;
70908;SDS011;58554;52.006;5.926;2023-06-04T06:10:36;6.37;;;2.63;;
70908;SDS011;58554;52.006;5.926;2023-06-04T06:13:03;6.40;;;3.00;;
70908;SDS011;58554;52.006;5.926;2023-06-04T06:15:29;6.07;;;2.67;;
70908;SDS011;58554;52.006;5.926;2023-06-04T06:17:58;4.70;;;2.70;;
70908;SDS011;58554;52.006;5.926;2023-06-04T06:20:25;6.75;;;3.03;;
70908;SDS011;58554;52.006;5.926;2023-06-04T06:22:51;5.13;;;2.70;;
70908;SDS011;58554;52.006;5.926;2023-06-04T06:25:18;5.63;;;3.10;;
70908;SDS011;58554;52.006;5.926;2023-06-04T06:27:44;4.70;;;2.80;;
70908;SDS011;58554;52.006;5.926;2023-06-04T06:30:11;4.43;;;2.53;;
70908;SDS011;58554;52.006;5.926;2023-06-04T06:32:38;7.17;;;3.20;;
70908;SDS011;58554;52.006;5.926;2023-06-04T06:35:08;4.97;;;2.45;;
70908;SDS011;58554;52.006;5.926;2023-06-04T06:37:34;5.33;;;2.37;;
70908;SDS011;58554;52.006;5.926;2023-06-04T06:40:01;5.07;;;3.07;;
70908;SDS011;58554;52.006;5.926;2023-06-04T06:42:31;6.25;;;2.92;;
70908;SDS011;58554;52.006;5.926;2023-06-04T06:44:58;5.17;;;2.50;;
70908;SDS011;58554;52.006;5.926;2023-06-04T06:47:25;5.90;;;2.83;;
70908;SDS011;58554;52.006;5.926;2023-06-04T06:49:51;4.37;;;2.73;;
70908;SDS011;58554;52.006;5.926;2023-06-04T06:52:20;5.63;;;2.95;;
70908;SDS011;58554;52.006;5.926;2023-06-04T06:54:47;4.53;;;2.83;;
70908;SDS011;58554;52.006;5.926;2023-06-04T06:57:13;5.47;;;2.43;;
70908;SDS011;58554;52.006;5.926;2023-06-04T06:59:40;5.20;;;2.40;;
70908;SDS011;58554;52.006;5.926;2023-06-04T07:02:06;5.32;;;3.00;;
70908;SDS011;58554;52.006;5.926;2023-06-04T07:04:33;4.20;;;2.57;;
70908;SDS011;58554;52.006;5.926;2023-06-04T07:07:00;5.63;;;2.67;;
70908;SDS011;58554;52.006;5.926;2023-06-04T07:09:29;4.40;;;2.60;;
70908;SDS011;58554;52.006;5.926;2023-06-04T07:11:55;5.55;;;2.90;;
70908;SDS011;58554;52.006;5.926;2023-06-04T07:14:22;5.97;;;2.63;;
70908;SDS011;58554;52.006;5.926;2023-06-04T07:16:48;5.97;;;2.60;;
70908;SDS011;58554;52.006;5.926;2023-06-04T07:19:15;5.40;;;2.50;;
70908;SDS011;58554;52.006;5.926;2023-06-04T07:21:41;5.63;;;2.83;;
70908;SDS011;58554;52.006;5.926;2023-06-04T07:24:08;5.55;;;2.47;;
70908;SDS011;58554;52.006;5.926;2023-06-04T07:26:37;6.63;;;2.67;;
70908;SDS011;58554;52.006;5.926;2023-06-04T07:29:04;4.25;;;2.50;;
70908;SDS011;58554;52.006;5.926;2023-06-04T07:31:30;7.05;;;2.60;;
70908;SDS011;58554;52.006;5.926;2023-06-04T07:33:57;5.63;;;2.47;;
70908;SDS011;58554;52.006;5.926;2023-06-04T07:36:23;6.47;;;2.73;;
70908;SDS011;58554;52.006;5.926;2023-06-04T07:38:50;6.30;;;2.40;;
70908;SDS011;58554;52.006;5.926;2023-06-04T07:41:16;3.70;;;2.20;;
70908;SDS011;58554;52.006;5.926;2023-06-04T07:43:45;5.85;;;2.20;;
70908;SDS011;58554;52.006;5.926;2023-06-04T07:46:12;3.30;;;2.10;;
70908;SDS011;58554;52.006;5.926;2023-06-04T07:48:39;5.15;;;2.15;;
70908;SDS011;58554;52.006;5.926;2023-06-04T07:51:06;5.10;;;2.30;;
70908;SDS011;58554;52.006;5.926;2023-06-04T07:53:32;4.53;;;2.07;;
70908;SDS011;58554;52.006;5.926;2023-06-04T07:55:58;4.10;;;1.97;;
70908;SDS011;58554;52.006;5.926;2023-06-04T07:58:25;3.93;;;2.03;;
70908;SDS011;58554;52.006;5.926;2023-06-04T08:00:54;3.50;;;2.00;;
70908;SDS011;58554;52.006;5.926;2023-06-04T08:03:21;3.27;;;1.80;;
70908;SDS011;58554;52.006;5.926;2023-06-04T08:05:48;3.72;;;1.98;;
70908;SDS011;58554;52.006;5.926;2023-06-04T08:08:15;3.27;;;1.70;;
70908;SDS011;58554;52.006;5.926;2023-06-04T08:10:42;5.13;;;2.00;;
70908;SDS011;58554;52.006;5.926;2023-06-04T08:13:08;3.20;;;1.88;;
70908;SDS011;58554;52.006;5.926;2023-06-04T08:15:35;5.15;;;1.92;;
70908;SDS011;58554;52.006;5.926;2023-06-04T08:18:04;3.80;;;1.70;;
70908;SDS011;58554;52.006;5.926;2023-06-04T08:20:31;3.87;;;1.70;;
70908;SDS011;58554;52.006;5.926;2023-06-04T08:22:57;5.10;;;1.75;;
70908;SDS011;58554;52.006;5.926;2023-06-04T08:25:24;3.57;;;1.80;;
70908;SDS011;58554;52.006;5.926;2023-06-04T08:27:50;4.10;;;1.75;;
70908;SDS011;58554;52.006;5.926;2023-06-04T08:30:17;3.50;;;1.60;;
70908;SDS011;58554;52.006;5.926;2023-06-04T08:32:43;4.37;;;1.83;;
70908;SDS011;58554;52.006;5.926;2023-06-04T08:35:12;2.80;;;1.70;;
70908;SDS011;58554;52.006;5.926;2023-06-04T08:37:39;3.90;;;1.97;;
70908;SDS011;58554;52.006;5.926;2023-06-04T08:40:07;4.68;;;2.10;;
70908;SDS011;58554;52.006;5.926;2023-06-04T08:42:37;3.57;;;1.80;;
70908;SDS011;58554;52.006;5.926;2023-06-04T08:45:09;3.13;;;1.60;;
70908;SDS011;58554;52.006;5.926;2023-06-04T08:47:38;2.93;;;1.70;;
70908;SDS011;58554;52.006;5.926;2023-06-04T08:50:12;4.43;;;1.90;;
70908;SDS011;58554;52.006;5.926;2023-06-04T08:52:44;3.35;;;1.80;;
70908;SDS011;58554;52.006;5.926;2023-06-04T08:55:11;3.90;;;1.93;;
70908;SDS011;58554;52.006;5.926;2023-06-04T08:57:40;4.75;;;1.85;;
70908;SDS011;58554;52.006;5.926;2023-06-04T09:00:07;4.10;;;1.70;;
70908;SDS011;58554;52.006;5.926;2023-06-04T09:02:36;4.93;;;1.95;;
70908;SDS011;58554;52.006;5.926;2023-06-04T09:05:04;3.40;;;1.60;;
70908;SDS011;58554;52.006;5.926;2023-06-04T09:07:36;3.75;;;1.73;;
70908;SDS011;58554;52.006;5.926;2023-06-04T09:10:07;3.42;;;1.52;;
70908;SDS011;58554;52.006;5.926;2023-06-04T09:12:39;4.80;;;1.90;;
70908;SDS011;58554;52.006;5.926;2023-06-04T09:15:09;3.25;;;1.50;;
70908;SDS011;58554;52.006;5.926;2023-06-04T09:17:36;2.25;;;1.55;;
70908;SDS011;58554;52.006;5.926;2023-06-04T09:20:03;3.03;;;1.80;;
70908;SDS011;58554;52.006;5.926;2023-06-04T09:22:36;2.72;;;1.40;;
70908;SDS011;58554;52.006;5.926;2023-06-04T09:25:04;3.17;;;1.70;;
70908;SDS011;58554;52.006;5.926;2023-06-04T09:27:44;2.67;;;1.50;;
70908;SDS011;58554;52.006;5.926;2023-06-04T09:30:11;2.58;;;1.50;;
70908;SDS011;58554;52.006;5.926;2023-06-04T09:32:37;3.10;;;1.60;;
70908;SDS011;58554;52.006;5.926;2023-06-04T09:35:10;3.63;;;1.17;;
70908;SDS011;58554;52.006;5.926;2023-06-04T09:37:42;2.53;;;1.40;;
70908;SDS011;58554;52.006;5.926;2023-06-04T09:40:17;3.63;;;1.65;;
70908;SDS011;58554;52.006;5.926;2023-06-04T09:42:44;2.70;;;1.40;;
70908;SDS011;58554;52.006;5.926;2023-06-04T09:45:13;6.20;;;2.30;;
70908;SDS011;58554;52.006;5.926;2023-06-04T09:47:52;2.63;;;1.45;;
70908;SDS011;58554;52.006;5.926;2023-06-04T09:50:24;3.20;;;1.45;;
70908;SDS011;58554;52.006;5.926;2023-06-04T09:52:55;2.70;;;1.48;;
70908;SDS011;58554;52.006;5.926;2023-06-04T09:55:22;2.97;;;1.48;;
70908;SDS011;58554;52.006;5.926;2023-06-04T09:57:50;2.40;;;1.53;;
70908;SDS011;58554;52.006;5.926;2023-06-04T10:00:18;3.33;;;1.50;;
70908;SDS011;58554;52.006;5.926;2023-06-04T10:02:47;3.80;;;1.40;;
70908;SDS011;58554;52.006;5.926;2023-06-04T10:05:16;3.37;;;1.40;;
70908;SDS011;58554;52.006;5.926;2023-06-04T10:07:44;2.53;;;1.40;;
70908;SDS011;58554;52.006;5.926;2023-06-04T10:10:16;3.43;;;1.60;;
70908;SDS011;58554;52.006;5.926;2023-06-04T10:12:46;2.92;;;1.52;;
70908;SDS011;58554;52.006;5.926;2023-06-04T10:15:20;3.70;;;1.48;;
70908;SDS011;58554;52.006;5.926;2023-06-04T10:17:47;2.20;;;1.30;;
70908;SDS011;58554;52.006;5.926;2023-06-04T10:20:16;4.47;;;1.50;;
70908;SDS011;58554;52.006;5.926;2023-06-04T10:22:44;2.63;;;1.50;;
70908;SDS011;58554;52.006;5.926;2023-06-04T10:25:11;3.03;;;1.50;;
70908;SDS011;58554;52.006;5.926;2023-06-04T10:27:41;2.47;;;1.57;;
70908;SDS011;58554;52.006;5.926;2023-06-04T10:30:08;4.38;;;1.40;;
70908;SDS011;58554;52.006;5.926;2023-06-04T10:32:36;3.38;;;1.48;;
70908;SDS011;58554;52.006;5.926;2023-06-04T10:35:04;3.63;;;1.50;;
70908;SDS011;58554;52.006;5.926;2023-06-04T10:37:31;3.40;;;1.58;;
70908;SDS011;58554;52.006;5.926;2023-06-04T10:39:58;4.07;;;1.40;;
70908;SDS011;58554;52.006;5.926;2023-06-04T10:42:24;5.30;;;1.65;;
70908;SDS011;58554;52.006;5.926;2023-06-04T10:44:54;2.93;;;1.50;;
70908;SDS011;58554;52.006;5.926;2023-06-04T10:47:21;2.65;;;1.50;;
70908;SDS011;58554;52.006;5.926;2023-06-04T10:49:49;2.77;;;1.70;;
70908;SDS011;58554;52.006;5.926;2023-06-04T10:52:17;2.83;;;1.60;;
70908;SDS011;58554;52.006;5.926;2023-06-04T10:54:45;3.75;;;1.73;;
70908;SDS011;58554;52.006;5.926;2023-06-04T10:57:13;2.35;;;1.27;;
70908;SDS011;58554;52.006;5.926;2023-06-04T10:59:41;5.17;;;1.40;;
70908;SDS011;58554;52.006;5.926;2023-06-04T11:02:22;6.47;;;1.57;;
70908;SDS011;58554;52.006;5.926;2023-06-04T11:04:58;2.73;;;1.47;;
70908;SDS011;58554;52.006;5.926;2023-06-04T11:07:26;2.75;;;1.48;;
70908;SDS011;58554;52.006;5.926;2023-06-04T11:09:53;2.50;;;1.42;;
70908;SDS011;58554;52.006;5.926;2023-06-04T11:12:21;4.75;;;1.60;;
70908;SDS011;58554;52.006;5.926;2023-06-04T11:14:54;3.20;;;1.67;;
70908;SDS011;58554;52.006;5.926;2023-06-04T11:17:23;3.10;;;1.25;;
70908;SDS011;58554;52.006;5.926;2023-06-04T11:19:50;4.18;;;1.67;;
70908;SDS011;58554;52.006;5.926;2023-06-04T11:22:16;2.50;;;1.45;;
70908;SDS011;58554;52.006;5.926;2023-06-04T11:24:43;2.60;;;1.50;;
70908;SDS011;58554;52.006;5.926;2023-06-04T11:27:11;4.20;;;1.50;;
70908;SDS011;58554;52.006;5.926;2023-06-04T11:29:37;3.57;;;1.17;;
70908;SDS011;58554;52.006;5.926;2023-06-04T11:32:04;2.72;;;1.33;;
70908;SDS011;58554;52.006;5.926;2023-06-04T11:34:36;4.03;;;1.40;;
70908;SDS011;58554;52.006;5.926;2023-06-04T11:37:09;3.00;;;1.73;;
70908;SDS011;58554;52.006;5.926;2023-06-04T11:39:36;3.17;;;1.55;;
70908;SDS011;58554;52.006;5.926;2023-06-04T11:42:04;2.78;;;1.40;;
70908;SDS011;58554;52.006;5.926;2023-06-04T11:44:32;3.60;;;1.60;;
70908;SDS011;58554;52.006;5.926;2023-06-04T11:46:59;3.00;;;1.70;;
70908;SDS011;58554;52.006;5.926;2023-06-04T11:49:26;3.47;;;1.50;;
70908;SDS011;58554;52.006;5.926;2023-06-04T11:51:56;3.50;;;1.60;;
70908;SDS011;58554;52.006;5.926;2023-06-04T11:54:23;3.17;;;1.40;;
70908;SDS011;58554;52.006;5.926;2023-06-04T11:56:51;2.78;;;1.58;;
70908;SDS011;58554;52.006;5.926;2023-06-04T11:59:18;3.85;;;1.80;;
70908;SDS011;58554;52.006;5.926;2023-06-04T12:01:46;2.95;;;1.40;;
70908;SDS011;58554;52.006;5.926;2023-06-04T12:04:14;2.80;;;1.70;;
70908;SDS011;58554;52.006;5.926;2023-06-04T12:06:52;3.13;;;1.70;;
70908;SDS011;58554;52.006;5.926;2023-06-04T12:09:22;2.40;;;1.33;;
70908;SDS011;58554;52.006;5.926;2023-06-04T12:11:56;2.38;;;1.60;;
70908;SDS011;58554;52.006;5.926;2023-06-04T12:14:24;3.33;;;1.60;;
70908;SDS011;58554;52.006;5.926;2023-06-04T12:16:54;3.53;;;1.80;;
70908;SDS011;58554;52.006;5.926;2023-06-04T12:19:21;2.40;;;1.37;;
70908;SDS011;58554;52.006;5.926;2023-06-04T12:21:58;2.80;;;1.70;;
70908;SDS011;58554;52.006;5.926;2023-06-04T12:24:29;2.30;;;1.50;;
70908;SDS011;58554;52.006;5.926;2023-06-04T12:27:03;3.33;;;1.77;;
70908;SDS011;58554;52.006;5.926;2023-06-04T12:29:32;3.55;;;1.63;;
70908;SDS011;58554;52.006;5.926;2023-06-04T12:32:02;3.47;;;1.80;;
70908;SDS011;58554;52.006;5.926;2023-06-04T12:34:31;3.70;;;1.60;;
70908;SDS011;58554;52.006;5.926;2023-06-04T12:36:58;3.60;;;1.65;;
70908;SDS011;58554;52.006;5.926;2023-06-04T12:39:24;4.70;;;1.63;;
70908;SDS011;58554;52.006;5.926;2023-06-04T12:41:53;2.80;;;1.60;;
70908;SDS011;58554;52.006;5.926;2023-06-04T12:44:20;4.30;;;1.80;;
70908;SDS011;58554;52.006;5.926;2023-06-04T12:46:47;2.60;;;1.60;;
70908;SDS011;58554;52.006;5.926;2023-06-04T12:49:14;3.73;;;1.70;;
70908;SDS011;58554;52.006;5.926;2023-06-04T12:51:40;3.00;;;1.70;;
70908;SDS011;58554;52.006;5.926;2023-06-04T12:54:07;4.10;;;1.80;;
70908;SDS011;58554;52.006;5.926;2023-06-04T12:56:33;4.15;;;1.90;;
70908;SDS011;58554;52.006;5.926;2023-06-04T12:59:05;2.63;;;1.63;;
70908;SDS011;58554;52.006;5.926;2023-06-04T13:01:31;3.53;;;2.00;;
70908;SDS011;58554;52.006;5.926;2023-06-04T13:03:58;2.93;;;1.67;;
70908;SDS011;58554;52.006;5.926;2023-06-04T13:06:24;2.90;;;1.52;;
70908;SDS011;58554;52.006;5.926;2023-06-04T13:08:51;3.00;;;1.65;;
70908;SDS011;58554;52.006;5.926;2023-06-04T13:11:18;2.90;;;1.73;;
70908;SDS011;58554;52.006;5.926;2023-06-04T13:13:44;2.67;;;1.67;;
70908;SDS011;58554;52.006;5.926;2023-06-04T13:16:13;3.95;;;1.70;;
70908;SDS011;58554;52.006;5.926;2023-06-04T13:18:40;3.20;;;1.60;;
70908;SDS011;58554;52.006;5.926;2023-06-04T13:21:06;4.20;;;2.00;;
70908;SDS011;58554;52.006;5.926;2023-06-04T13:23:33;3.27;;;1.70;;
70908;SDS011;58554;52.006;5.926;2023-06-04T13:25:59;3.23;;;1.60;;
70908;SDS011;58554;52.006;5.926;2023-06-04T13:28:26;3.00;;;1.85;;
70908;SDS011;58554;52.006;5.926;2023-06-04T13:30:53;2.70;;;1.60;;
70908;SDS011;58554;52.006;5.926;2023-06-04T13:33:22;4.28;;;1.95;;
70908;SDS011;58554;52.006;5.926;2023-06-04T13:35:48;2.70;;;1.90;;
70908;SDS011;58554;52.006;5.926;2023-06-04T13:38:15;3.43;;;2.20;;
70908;SDS011;58554;52.006;5.926;2023-06-04T13:40:41;3.53;;;2.10;;
70908;SDS011;58554;52.006;5.926;2023-06-04T13:43:08;2.93;;;1.67;;
70908;SDS011;58554;52.006;5.926;2023-06-04T13:45:34;3.20;;;1.50;;
70908;SDS011;58554;52.006;5.926;2023-06-04T13:48:01;2.70;;;1.77;;
70908;SDS011;58554;52.006;5.926;2023-06-04T13:50:30;4.63;;;1.90;;
70908;SDS011;58554;52.006;5.926;2023-06-04T13:52:56;3.23;;;1.83;;
70908;SDS011;58554;52.006;5.926;2023-06-04T13:55:23;3.83;;;1.80;;
70908;SDS011;58554;52.006;5.926;2023-06-04T13:57:50;4.60;;;1.80;;
70908;SDS011;58554;52.006;5.926;2023-06-04T14:00:16;2.93;;;1.60;;
70908;SDS011;58554;52.006;5.926;2023-06-04T14:02:42;3.45;;;2.00;;
70908;SDS011;58554;52.006;5.926;2023-06-04T14:05:09;2.70;;;1.80;;
70908;SDS011;58554;52.006;5.926;2023-06-04T14:07:38;3.67;;;1.67;;
70908;SDS011;58554;52.006;5.926;2023-06-04T14:10:07;2.80;;;1.70;;
70908;SDS011;58554;52.006;5.926;2023-06-04T14:12:35;4.25;;;1.80;;
70908;SDS011;58554;52.006;5.926;2023-06-04T14:15:04;3.30;;;1.60;;
70908;SDS011;58554;52.006;5.926;2023-06-04T14:17:32;6.10;;;1.90;;
70908;SDS011;58554;52.006;5.926;2023-06-04T14:19:58;3.33;;;1.70;;
70908;SDS011;58554;52.006;5.926;2023-06-04T14:22:25;2.80;;;1.70;;
70908;SDS011;58554;52.006;5.926;2023-06-04T14:24:54;2.70;;;1.63;;
70908;SDS011;58554;52.006;5.926;2023-06-04T14:27:21;3.58;;;1.65;;
70908;SDS011;58554;52.006;5.926;2023-06-04T14:29:47;3.33;;;1.83;;
70908;SDS011;58554;52.006;5.926;2023-06-04T14:32:14;3.63;;;1.75;;
70908;SDS011;58554;52.006;5.926;2023-06-04T14:34:40;3.20;;;1.97;;
70908;SDS011;58554;52.006;5.926;2023-06-04T14:37:07;3.67;;;1.73;;
70908;SDS011;58554;52.006;5.926;2023-06-04T14:39:33;3.95;;;1.83;;
70908;SDS011;58554;52.006;5.926;2023-06-04T14:42:02;3.10;;;1.85;;
70908;SDS011;58554;52.006;5.926;2023-06-04T14:44:31;3.87;;;1.90;;
70908;SDS011;58554;52.006;5.926;2023-06-04T14:46:57;3.20;;;1.70;;
70908;SDS011;58554;52.006;5.926;2023-06-04T14:49:24;3.30;;;1.53;;
70908;SDS011;58554;52.006;5.926;2023-06-04T14:51:51;3.10;;;1.80;;